Time;durP1;ratioP1;P1;durP2;ratioP2;P2;SDS_P1;SDS_P2;PMS_P1;PMS_P2;Temp;Humidity;BMP_temperature;BMP_pressure;BME280_temperature;BME280_humidity;BME280_pressure;Samples;Min_cycle;Max_cycle;Signal;HPM_P1;HPM_P2
2022/04/20 00:00:41;;;;;;;8.30;2.50;;;;;;;;;;5065515;28;20075;-64
2022/04/20 00:03:08;;;;;;;8.98;2.70;;;;;;;;;;5063329;28;20040;-64
2022/04/20 00:05:34;;;;;;;4.93;2.22;;;;;;;;;;5065825;28;20050;-64
2022/04/20 00:08:01;;;;;;;3.92;2.15;;;;;;;;;;5047400;28;20036;-64
2022/04/20 00:10:28;;;;;;;8.60;2.40;;;;;;;;;;5065768;28;20112;-64
2022/04/20 00:12:54;;;;;;;8.10;2.40;;;;;;;;;;5046586;28;20113;-64
2022/04/20 00:15:20;;;;;;;7.30;3.05;;;;;;;;;;5067130;28;20392;-64
2022/04/20 00:17:46;;;;;;;6.32;2.72;;;;;;;;;;5049262;28;20119;-64
2022/04/20 00:20:12;;;;;;;6.90;2.83;;;;;;;;;;5064711;28;20514;-64
2022/04/20 00:22:39;;;;;;;6.05;2.65;;;;;;;;;;5047751;28;20048;-64
2022/04/20 00:25:05;;;;;;;8.55;2.78;;;;;;;;;;5048651;28;20076;-64
2022/04/20 00:27:34;;;;;;;5.88;2.72;;;;;;;;;;5064612;28;20052;-64
2022/04/20 00:30:00;;;;;;;7.13;2.80;;;;;;;;;;5061233;28;20429;-64
2022/04/20 00:32:26;;;;;;;5.90;2.30;;;;;;;;;;5063486;28;20376;-64
2022/04/20 00:34:52;;;;;;;6.30;2.65;;;;;;;;;;5041840;28;20051;-64
2022/04/20 00:37:18;;;;;;;6.13;2.88;;;;;;;;;;5061377;28;20045;-64
2022/04/20 00:39:45;;;;;;;6.35;2.92;;;;;;;;;;5043311;28;20044;-64
2022/04/20 00:42:11;;;;;;;6.00;2.80;;;;;;;;;;5040154;28;20068;-63
2022/04/20 00:44:37;;;;;;;7.47;2.42;;;;;;;;;;5042896;28;20488;-64
2022/04/20 00:47:04;;;;;;;8.73;2.67;;;;;;;;;;5059862;28;20408;-64
2022/04/20 00:49:30;;;;;;;5.43;3.03;;;;;;;;;;5058311;28;20049;-64
2022/04/20 00:51:58;;;;;;;9.15;3.63;;;;;;;;;;5060822;28;20047;-64
2022/04/20 00:54:24;;;;;;;9.18;2.92;;;;;;;;;;5058750;28;20412;-64
2022/04/20 00:56:51;;;;;;;8.20;3.00;;;;;;;;;;5029340;28;20052;-64
2022/04/20 00:59:20;;;;;;;7.07;2.70;;;;;;;;;;5062633;28;20036;-64
2022/04/20 01:01:46;;;;;;;5.65;2.70;;;;;;;;;;5060353;28;20109;-64
2022/04/20 01:04:12;;;;;;;7.40;3.00;;;;;;;;;;5060381;28;20076;-64
2022/04/20 01:06:39;;;;;;;8.15;3.13;;;;;;;;;;5045815;28;20083;-64
2022/04/20 01:09:05;;;;;;;8.15;3.35;;;;;;;;;;5060467;28;20059;-64
2022/04/20 01:11:31;;;;;;;7.72;3.50;;;;;;;;;;5031250;28;20079;-64
2022/04/20 01:13:58;;;;;;;4.82;2.65;;;;;;;;;;5060668;28;20036;-64
2022/04/20 01:16:24;;;;;;;10.70;3.50;;;;;;;;;;5038779;28;20086;-64
2022/04/20 01:18:51;;;;;;;9.18;3.13;;;;;;;;;;5043034;28;20101;-63
2022/04/20 01:21:17;;;;;;;6.10;2.92;;;;;;;;;;5045230;28;20051;-64
2022/04/20 01:23:43;;;;;;;7.88;2.95;;;;;;;;;;5060985;28;20107;-63
2022/04/20 01:26:10;;;;;;;14.57;3.40;;;;;;;;;;5059154;28;20045;-64
2022/04/20 01:28:37;;;;;;;6.13;3.30;;;;;;;;;;5044899;28;20048;-64
2022/04/20 01:31:03;;;;;;;7.70;4.57;;;;;;;;;;5044413;28;20063;-63
2022/04/20 01:33:29;;;;;;;5.55;3.17;;;;;;;;;;5062457;28;20044;-64
2022/04/20 01:35:56;;;;;;;6.35;2.80;;;;;;;;;;5063252;28;20055;-63
2022/04/20 01:38:22;;;;;;;7.95;3.45;;;;;;;;;;5062960;28;20059;-64
2022/04/20 01:40:48;;;;;;;7.95;3.20;;;;;;;;;;5047812;28;20048;-63
2022/04/20 01:43:14;;;;;;;9.10;3.42;;;;;;;;;;5063744;28;20047;-64
2022/04/20 01:45:40;;;;;;;6.28;3.08;;;;;;;;;;5062210;28;20072;-64
2022/04/20 01:48:07;;;;;;;6.38;3.47;;;;;;;;;;5063531;28;20044;-64
2022/04/20 01:50:33;;;;;;;7.57;3.15;;;;;;;;;;5063193;28;20052;-64
2022/04/20 01:53:00;;;;;;;5.35;2.70;;;;;;;;;;5065117;28;20028;-64
2022/04/20 01:55:26;;;;;;;8.95;3.33;;;;;;;;;;5062376;28;20502;-64
2022/04/20 01:57:53;;;;;;;7.03;3.40;;;;;;;;;;5047727;28;20045;-63
2022/04/20 02:00:19;;;;;;;6.85;3.72;;;;;;;;;;5064213;28;20056;-63
2022/04/20 02:02:45;;;;;;;10.35;4.00;;;;;;;;;;5064991;28;20050;-64
2022/04/20 02:05:13;;;;;;;7.07;3.28;;;;;;;;;;5064262;28;20326;-64
2022/04/20 02:07:39;;;;;;;8.43;3.70;;;;;;;;;;5064776;28;20441;-63
2022/04/20 02:10:06;;;;;;;7.20;3.78;;;;;;;;;;5063468;28;20040;-63
2022/04/20 02:12:33;;;;;;;6.75;3.13;;;;;;;;;;5044981;28;20473;-64
2022/04/20 02:14:59;;;;;;;5.88;3.42;;;;;;;;;;5045956;28;20055;-63
2022/04/20 02:17:25;;;;;;;7.15;3.35;;;;;;;;;;5060923;28;21722;-64
2022/04/20 02:19:51;;;;;;;6.30;3.67;;;;;;;;;;5059056;28;20044;-64
2022/04/20 02:22:17;;;;;;;11.02;3.78;;;;;;;;;;5056397;28;20570;-63
2022/04/20 02:24:43;;;;;;;6.68;3.25;;;;;;;;;;5040343;28;20491;-63
2022/04/20 02:27:10;;;;;;;6.70;3.88;;;;;;;;;;5059040;28;20683;-64
2022/04/20 02:29:36;;;;;;;7.47;3.85;;;;;;;;;;5060009;28;20115;-64
2022/04/20 02:32:03;;;;;;;8.88;3.45;;;;;;;;;;5062742;28;20124;-64
2022/04/20 02:34:29;;;;;;;8.55;4.03;;;;;;;;;;5060833;28;20076;-64
2022/04/20 02:36:55;;;;;;;6.53;3.63;;;;;;;;;;5060708;28;20073;-64
2022/04/20 02:39:21;;;;;;;6.15;3.70;;;;;;;;;;5061645;28;20138;-63
2022/04/20 02:41:47;;;;;;;7.13;3.75;;;;;;;;;;5046354;28;20602;-63
2022/04/20 02:44:14;;;;;;;8.75;3.53;;;;;;;;;;5045627;28;20564;-64
2022/04/20 02:46:40;;;;;;;7.40;3.70;;;;;;;;;;5060831;28;20507;-64
2022/04/20 02:49:06;;;;;;;6.38;3.60;;;;;;;;;;5061636;28;20037;-64
2022/04/20 02:51:32;;;;;;;6.30;3.70;;;;;;;;;;5046382;28;20051;-64
2022/04/20 02:53:58;;;;;;;8.68;3.80;;;;;;;;;;5045536;28;20054;-64
2022/04/20 02:56:25;;;;;;;6.55;3.97;;;;;;;;;;5046022;28;20052;-64
2022/04/20 02:58:51;;;;;;;9.40;4.55;;;;;;;;;;5046740;28;20056;-64
2022/04/20 03:01:17;;;;;;;6.63;4.00;;;;;;;;;;5060987;28;20044;-64
2022/04/20 03:03:43;;;;;;;8.85;3.75;;;;;;;;;;5061546;28;20193;-64
2022/04/20 03:06:11;;;;;;;7.93;4.07;;;;;;;;;;5065877;28;20086;-64
2022/04/20 03:08:37;;;;;;;8.02;4.13;;;;;;;;;;5065274;28;20052;-63
2022/04/20 03:11:04;;;;;;;8.07;4.03;;;;;;;;;;5062445;28;20049;-64
2022/04/20 03:13:30;;;;;;;10.85;4.07;;;;;;;;;;5063410;28;20083;-65
2022/04/20 03:15:56;;;;;;;6.80;4.32;;;;;;;;;;5060988;28;20113;-64
2022/04/20 03:18:22;;;;;;;6.68;3.92;;;;;;;;;;5045850;28;20056;-64
2022/04/20 03:20:50;;;;;;;6.65;3.88;;;;;;;;;;5063448;28;20049;-64
2022/04/20 03:23:16;;;;;;;9.23;5.05;;;;;;;;;;5044160;28;20040;-63
2022/04/20 03:25:43;;;;;;;10.00;3.95;;;;;;;;;;5063072;28;21764;-64
2022/04/20 03:28:09;;;;;;;6.28;4.20;;;;;;;;;;5040287;28;20051;-64
2022/04/20 03:30:38;;;;;;;7.78;3.95;;;;;;;;;;5044682;28;20198;-64
2022/04/20 03:33:05;;;;;;;9.60;4.38;;;;;;;;;;5043609;28;20064;-64
2022/04/20 03:35:31;;;;;;;7.05;3.70;;;;;;;;;;5042579;28;20052;-64
2022/04/20 03:37:57;;;;;;;6.55;4.25;;;;;;;;;;5062969;28;20054;-63
2022/04/20 03:40:23;;;;;;;8.07;4.38;;;;;;;;;;5065724;28;20044;-63
2022/04/20 03:42:50;;;;;;;10.55;4.70;;;;;;;;;;5046764;28;20055;-64
2022/04/20 03:45:16;;;;;;;11.10;3.95;;;;;;;;;;5049189;28;20033;-64
2022/04/20 03:47:43;;;;;;;12.23;4.47;;;;;;;;;;5049266;28;20036;-64
2022/04/20 03:50:09;;;;;;;9.73;3.92;;;;;;;;;;5048760;28;20064;-64
2022/04/20 03:52:38;;;;;;;8.25;4.28;;;;;;;;;;5067344;28;20048;-64
2022/04/20 03:55:05;;;;;;;10.85;4.38;;;;;;;;;;5048340;28;20131;-64
2022/04/20 03:57:31;;;;;;;6.63;3.97;;;;;;;;;;5048726;28;20043;-64
2022/04/20 03:59:57;;;;;;;9.15;4.55;;;;;;;;;;5045757;28;20059;-64
2022/04/20 04:02:23;;;;;;;7.55;4.50;;;;;;;;;;5065624;28;20048;-64
2022/04/20 04:04:49;;;;;;;10.85;4.38;;;;;;;;;;5064307;28;20419;-64
2022/04/20 04:07:16;;;;;;;9.68;4.13;;;;;;;;;;5066427;28;20613;-64
2022/04/20 04:09:42;;;;;;;6.30;4.28;;;;;;;;;;5065590;28;20039;-64
2022/04/20 04:12:08;;;;;;;13.75;6.30;;;;;;;;;;5065683;28;20369;-64
2022/04/20 04:14:38;;;;;;;9.13;4.43;;;;;;;;;;5066896;28;20048;-64
2022/04/20 04:17:05;;;;;;;9.18;4.47;;;;;;;;;;5066519;28;20042;-64
2022/04/20 04:19:31;;;;;;;8.70;4.50;;;;;;;;;;5064901;28;20058;-64
2022/04/20 04:21:57;;;;;;;7.47;4.28;;;;;;;;;;5065066;28;20037;-64
2022/04/20 04:24:34;;;;;;;9.68;4.07;;;;;;;;;;5064802;28;20043;-64
2022/04/20 04:27:01;;;;;;;7.75;5.00;;;;;;;;;;5064199;28;20130;-64
2022/04/20 04:29:28;;;;;;;7.45;4.20;;;;;;;;;;5048149;28;20094;-64
2022/04/20 04:31:55;;;;;;;11.10;5.10;;;;;;;;;;5062988;28;20052;-64
2022/04/20 04:34:21;;;;;;;9.05;4.57;;;;;;;;;;5043617;28;20364;-64
2022/04/20 04:36:47;;;;;;;7.32;4.30;;;;;;;;;;5057242;28;20083;-64
2022/04/20 04:39:14;;;;;;;6.40;3.95;;;;;;;;;;5041616;28;20145;-64
2022/04/20 04:41:42;;;;;;;8.90;4.00;;;;;;;;;;5042800;28;20078;-64
2022/04/20 04:44:08;;;;;;;6.22;4.05;;;;;;;;;;5044442;28;20051;-64
2022/04/20 04:49:19;;;;;;;7.13;4.20;;;;;;;;;;5060346;28;20048;-63
2022/04/20 04:51:45;;;;;;;9.80;4.93;;;;;;;;;;5040662;28;20037;-64
2022/04/20 04:54:11;;;;;;;9.45;4.38;;;;;;;;;;5045855;28;20044;-63
2022/04/20 04:56:38;;;;;;;7.43;4.30;;;;;;;;;;5062057;28;20035;-63
2022/04/20 04:59:04;;;;;;;9.80;4.68;;;;;;;;;;5041477;28;20049;-64
2022/04/20 05:01:30;;;;;;;7.32;4.53;;;;;;;;;;5062003;28;20082;-63
2022/04/20 05:03:56;;;;;;;9.07;4.55;;;;;;;;;;5060277;28;20048;-64
2022/04/20 05:06:22;;;;;;;7.13;4.07;;;;;;;;;;5062522;28;20463;-64
2022/04/20 05:08:48;;;;;;;8.35;3.92;;;;;;;;;;5061269;28;20515;-64
2022/04/20 05:11:14;;;;;;;7.32;4.57;;;;;;;;;;5040132;28;20133;-63
2022/04/20 05:13:41;;;;;;;10.32;4.72;;;;;;;;;;5042494;28;20044;-64
2022/04/20 05:16:08;;;;;;;10.95;4.07;;;;;;;;;;5023643;28;20040;-64
2022/04/20 05:18:35;;;;;;;11.18;4.80;;;;;;;;;;5046124;28;20048;-63
2022/04/20 05:21:01;;;;;;;7.32;4.35;;;;;;;;;;5028485;28;20122;-64
2022/04/20 05:23:27;;;;;;;6.68;4.03;;;;;;;;;;5059174;28;20113;-64
2022/04/20 05:25:53;;;;;;;8.38;4.07;;;;;;;;;;5042984;28;20062;-64
2022/04/20 05:28:19;;;;;;;6.43;4.60;;;;;;;;;;5060626;28;20455;-64
2022/04/20 05:30:45;;;;;;;7.13;4.15;;;;;;;;;;5059061;28;20495;-64
2022/04/20 05:33:12;;;;;;;7.68;4.15;;;;;;;;;;5062699;28;20086;-63
2022/04/20 05:35:38;;;;;;;7.10;4.38;;;;;;;;;;5042224;28;20072;-63
2022/04/20 05:43:34;;;;;;;7.47;4.32;;;;;;;;;;5055986;28;20044;-63
2022/04/20 05:46:00;;;;;;;8.77;4.25;;;;;;;;;;5061079;28;20048;-64
2022/04/20 05:48:26;;;;;;;11.32;4.30;;;;;;;;;;5044119;28;20040;-63
2022/04/20 05:50:52;;;;;;;7.47;4.22;;;;;;;;;;5041275;28;20618;-64
2022/04/20 05:53:18;;;;;;;6.60;4.03;;;;;;;;;;5060988;28;20029;-64
2022/04/20 05:55:45;;;;;;;6.93;4.07;;;;;;;;;;5046793;28;20047;-64
2022/04/20 05:58:11;;;;;;;9.82;4.45;;;;;;;;;;5047297;28;20044;-64
2022/04/20 06:00:37;;;;;;;9.32;4.40;;;;;;;;;;5062929;28;20048;-64
2022/04/20 06:03:03;;;;;;;12.93;4.50;;;;;;;;;;5062823;28;20047;-64
2022/04/20 06:05:30;;;;;;;6.97;4.80;;;;;;;;;;5061937;28;20091;-64
2022/04/20 06:07:56;;;;;;;10.25;4.57;;;;;;;;;;5063644;28;20060;-64
2022/04/20 06:10:22;;;;;;;9.02;4.32;;;;;;;;;;5064566;28;20044;-65
2022/04/20 06:12:48;;;;;;;9.73;4.72;;;;;;;;;;5045345;28;20044;-65
2022/04/20 06:15:15;;;;;;;8.40;4.22;;;;;;;;;;5046150;28;20067;-64
2022/04/20 06:17:41;;;;;;;6.22;4.13;;;;;;;;;;5064583;28;20107;-64
2022/04/20 06:20:08;;;;;;;8.82;4.35;;;;;;;;;;5062893;28;20044;-64
2022/04/20 06:22:34;;;;;;;6.55;4.00;;;;;;;;;;5064354;28;20052;-64
2022/04/20 06:25:00;;;;;;;10.65;4.20;;;;;;;;;;5062119;28;20080;-64
2022/04/20 06:27:32;;;;;;;8.93;4.05;;;;;;;;;;5062315;28;20208;-64
2022/04/20 06:29:59;;;;;;;7.78;4.47;;;;;;;;;;5037140;28;20128;-64
2022/04/20 06:32:25;;;;;;;7.90;4.47;;;;;;;;;;5042519;28;20127;-64
2022/04/20 06:34:52;;;;;;;7.38;4.10;;;;;;;;;;5040844;28;20093;-65
2022/04/20 06:37:19;;;;;;;10.90;4.47;;;;;;;;;;5032213;28;20508;-64
2022/04/20 06:39:46;;;;;;;8.68;4.80;;;;;;;;;;5036590;28;20057;-65
2022/04/20 06:42:12;;;;;;;7.05;3.92;;;;;;;;;;5039867;28;20090;-65
2022/04/20 06:44:38;;;;;;;14.73;4.97;;;;;;;;;;5039282;28;20041;-64
2022/04/20 06:47:05;;;;;;;7.88;4.15;;;;;;;;;;5038227;28;20038;-65
2022/04/20 06:49:31;;;;;;;8.63;4.07;;;;;;;;;;5043781;28;20049;-65
2022/04/20 07:00:12;;;;;;;9.45;4.18;;;;;;;;;;5036749;28;20053;-65
2022/04/20 07:02:38;;;;;;;6.85;3.92;;;;;;;;;;5031755;28;20037;-65
2022/04/20 07:05:06;;;;;;;9.95;4.15;;;;;;;;;;5034138;28;20048;-66
2022/04/20 07:07:32;;;;;;;7.55;3.90;;;;;;;;;;5035673;28;20037;-64
2022/04/20 07:09:58;;;;;;;11.43;4.40;;;;;;;;;;5035262;28;20049;-64
2022/04/20 07:12:24;;;;;;;6.22;3.72;;;;;;;;;;5036386;28;20049;-64
2022/04/20 07:14:50;;;;;;;9.73;4.10;;;;;;;;;;5037273;28;20107;-64
2022/04/20 07:17:17;;;;;;;13.13;3.88;;;;;;;;;;5039789;28;20037;-65
2022/04/20 07:19:43;;;;;;;6.82;3.67;;;;;;;;;;5044385;28;20041;-64
2022/04/20 07:22:09;;;;;;;6.93;3.70;;;;;;;;;;5045037;28;20079;-65
2022/04/20 07:24:35;;;;;;;6.45;3.30;;;;;;;;;;5044855;28;20091;-65
2022/04/20 07:27:02;;;;;;;8.98;3.58;;;;;;;;;;5046777;28;20127;-65
2022/04/20 07:29:28;;;;;;;8.55;3.72;;;;;;;;;;5027422;28;20045;-64
2022/04/20 07:31:54;;;;;;;8.95;4.60;;;;;;;;;;5036065;28;20049;-64
2022/04/20 07:34:20;;;;;;;10.07;3.58;;;;;;;;;;5047122;28;20037;-64
2022/04/20 07:36:47;;;;;;;6.45;3.05;;;;;;;;;;5038828;28;20056;-64
2022/04/20 07:39:13;;;;;;;7.15;3.47;;;;;;;;;;5037961;28;20059;-65
2022/04/20 07:41:39;;;;;;;7.80;3.35;;;;;;;;;;5046165;28;20783;-64
2022/04/20 07:44:06;;;;;;;6.72;3.35;;;;;;;;;;5024274;28;20070;-64
2022/04/20 07:46:32;;;;;;;7.15;3.95;;;;;;;;;;5046827;28;20049;-64
2022/04/20 07:50:17;;;;;;;5.72;2.80;;;;;;;;;;5063164;28;20340;-64
2022/04/20 07:51:44;;;;;;;7.10;2.85;;;;;;;;;;5063971;28;20352;-65
2022/04/20 07:54:10;;;;;;;5.88;3.53;;;;;;;;;;5062170;28;20032;-65
2022/04/20 07:56:36;;;;;;;5.43;3.03;;;;;;;;;;5065546;28;20049;-65
2022/04/20 07:59:03;;;;;;;7.00;3.00;;;;;;;;;;5065084;28;20407;-65
2022/04/20 08:01:29;;;;;;;6.30;3.20;;;;;;;;;;5061459;28;20040;-64
2022/04/20 08:03:55;;;;;;;5.85;2.63;;;;;;;;;;5066081;28;20438;-64
2022/04/20 08:06:21;;;;;;;7.32;3.10;;;;;;;;;;5062764;28;20123;-64
2022/04/20 08:08:47;;;;;;;7.88;3.13;;;;;;;;;;5061151;28;20060;-64
2022/04/20 08:11:13;;;;;;;6.10;2.83;;;;;;;;;;5063809;28;20043;-64
2022/04/20 08:16:24;;;;;;;6.75;3.20;;;;;;;;;;5061684;28;20053;-66
2022/04/20 08:18:50;;;;;;;8.98;2.83;;;;;;;;;;5065491;28;20083;-64
2022/04/20 08:21:16;;;;;;;7.88;2.55;;;;;;;;;;5066328;28;20056;-65
2022/04/20 08:23:42;;;;;;;7.07;3.00;;;;;;;;;;5066296;28;20043;-65
2022/04/20 08:26:08;;;;;;;5.35;3.00;;;;;;;;;;5064114;28;20147;-65
2022/04/20 08:28:35;;;;;;;9.52;3.30;;;;;;;;;;5048150;28;20044;-65
2022/04/20 08:31:01;;;;;;;6.63;3.03;;;;;;;;;;5064365;28;20048;-65
2022/04/20 08:33:27;;;;;;;5.82;2.90;;;;;;;;;;5063485;28;20051;-65
2022/04/20 08:35:53;;;;;;;11.90;2.88;;;;;;;;;;5066133;28;20170;-65
2022/04/20 08:38:19;;;;;;;6.32;2.90;;;;;;;;;;5046133;28;20053;-65
2022/04/20 08:40:46;;;;;;;5.15;2.50;;;;;;;;;;5066270;28;20099;-65
2022/04/20 08:43:12;;;;;;;5.55;2.67;;;;;;;;;;5045751;28;20476;-65
2022/04/20 08:45:39;;;;;;;6.47;3.30;;;;;;;;;;5047655;28;20040;-65
2022/04/20 08:48:06;;;;;;;6.05;2.67;;;;;;;;;;5063272;28;20068;-65
2022/04/20 08:50:33;;;;;;;5.55;2.88;;;;;;;;;;5064893;28;20459;-65
2022/04/20 08:52:59;;;;;;;4.85;2.15;;;;;;;;;;5063902;28;20040;-65
2022/04/20 08:55:26;;;;;;;6.95;2.80;;;;;;;;;;5062797;28;20037;-65
2022/04/20 08:57:52;;;;;;;6.10;2.95;;;;;;;;;;5025427;28;20041;-65
2022/04/20 09:00:21;;;;;;;6.03;2.42;;;;;;;;;;5059142;28;20037;-65
2022/04/20 09:02:52;;;;;;;8.18;2.42;;;;;;;;;;5050441;28;20115;-65
2022/04/20 09:05:18;;;;;;;5.20;2.28;;;;;;;;;;5068769;28;20049;-65
2022/04/20 09:07:45;;;;;;;5.20;2.15;;;;;;;;;;5066717;28;20115;-63
2022/04/20 09:10:11;;;;;;;5.35;2.40;;;;;;;;;;5061378;28;20170;-65
2022/04/20 09:12:44;;;;;;;5.78;2.28;;;;;;;;;;5051543;28;20131;-65
2022/04/20 09:15:14;;;;;;;4.82;2.17;;;;;;;;;;5066437;28;20048;-65
2022/04/20 09:17:44;;;;;;;4.43;2.30;;;;;;;;;;5067237;28;20045;-65
2022/04/20 09:20:15;;;;;;;6.50;2.13;;;;;;;;;;5066461;28;20044;-64
2022/04/20 09:22:42;;;;;;;4.85;2.08;;;;;;;;;;5068711;28;20090;-65
2022/04/20 09:25:11;;;;;;;4.22;2.25;;;;;;;;;;5051300;28;20055;-65
2022/04/20 09:27:39;;;;;;;8.77;2.17;;;;;;;;;;5068542;28;20048;-65
2022/04/20 09:30:10;;;;;;;6.15;1.98;;;;;;;;;;5051466;28;20037;-65
2022/04/20 09:32:38;;;;;;;4.25;2.00;;;;;;;;;;5068518;28;20036;-65
2022/04/20 09:35:06;;;;;;;5.75;2.08;;;;;;;;;;5046173;28;20097;-65
2022/04/20 09:37:32;;;;;;;4.10;1.95;;;;;;;;;;5066148;28;20090;-65
2022/04/20 09:40:00;;;;;;;6.43;2.00;;;;;;;;;;5069400;28;20048;-66
2022/04/20 09:42:26;;;;;;;5.15;2.10;;;;;;;;;;5061849;28;20040;-65
2022/04/20 09:44:57;;;;;;;4.10;1.75;;;;;;;;;;5064332;28;20054;-66
2022/04/20 09:50:10;;;;;;;5.80;1.83;;;;;;;;;;5046351;28;20451;-65
2022/04/20 09:52:39;;;;;;;4.07;2.00;;;;;;;;;;5064542;28;20115;-66
2022/04/20 09:55:06;;;;;;;4.43;2.20;;;;;;;;;;5045567;28;20048;-66
2022/04/20 09:57:33;;;;;;;3.75;1.60;;;;;;;;;;5030433;28;20060;-66
2022/04/20 10:00:01;;;;;;;2.78;1.40;;;;;;;;;;5044631;28;21908;-65
2022/04/20 10:02:29;;;;;;;6.13;1.58;;;;;;;;;;5062897;28;20054;-65
2022/04/20 10:04:56;;;;;;;4.00;1.92;;;;;;;;;;5058670;28;20053;-65
2022/04/20 10:07:22;;;;;;;3.55;1.38;;;;;;;;;;5060388;28;20058;-66
2022/04/20 10:09:48;;;;;;;3.85;1.45;;;;;;;;;;5035820;28;20094;-65
2022/04/20 10:12:16;;;;;;;3.17;1.67;;;;;;;;;;5062213;28;20059;-65
2022/04/20 10:17:29;;;;;;;4.53;1.20;;;;;;;;;;5045252;28;20049;-65
2022/04/20 10:19:55;;;;;;;3.72;1.25;;;;;;;;;;5058163;28;20036;-65
2022/04/20 10:22:23;;;;;;;2.95;1.30;;;;;;;;;;5034697;28;20049;-65
2022/04/20 10:24:51;;;;;;;2.47;0.98;;;;;;;;;;5037309;28;20484;-66
2022/04/20 10:27:23;;;;;;;5.05;0.90;;;;;;;;;;5055595;28;20099;-66
2022/04/20 10:29:56;;;;;;;2.33;1.13;;;;;;;;;;5055546;28;20132;-66
2022/04/20 10:32:24;;;;;;;3.17;0.98;;;;;;;;;;5036859;28;20095;-65
2022/04/20 10:34:52;;;;;;;2.60;1.05;;;;;;;;;;5054211;28;20490;-66
2022/04/20 10:37:22;;;;;;;5.97;0.90;;;;;;;;;;5038402;28;20060;-66
2022/04/20 10:39:48;;;;;;;8.63;1.05;;;;;;;;;;5053182;28;20080;-66
2022/04/20 10:42:16;;;;;;;3.45;1.20;;;;;;;;;;5039229;28;20566;-66
2022/04/20 10:45:03;;;;;;;2.83;1.20;;;;;;;;;;5058912;28;20212;-66
2022/04/20 10:47:32;;;;;;;1.63;0.77;;;;;;;;;;5042678;28;21471;-65
2022/04/20 10:50:15;;;;;;;2.35;1.15;;;;;;;;;;5057928;28;20041;-65
2022/04/20 10:52:42;;;;;;;2.53;1.02;;;;;;;;;;5056998;28;20099;-65
2022/04/20 10:55:09;;;;;;;3.38;1.10;;;;;;;;;;5066119;28;20078;-65
2022/04/20 10:57:36;;;;;;;3.47;1.38;;;;;;;;;;5068419;28;20058;-65
2022/04/20 11:00:18;;;;;;;2.97;1.10;;;;;;;;;;5047983;28;20101;-65
2022/04/20 11:02:48;;;;;;;2.40;1.10;;;;;;;;;;5064033;28;20379;-65
2022/04/20 11:05:15;;;;;;;1.95;1.05;;;;;;;;;;5064547;28;20052;-65
2022/04/20 11:07:59;;;;;;;3.22;0.88;;;;;;;;;;5066766;28;20850;-66
2022/04/20 11:10:26;;;;;;;4.80;1.10;;;;;;;;;;5048504;28;20044;-65
2022/04/20 11:21:05;;;;;;;3.03;1.27;;;;;;;;;;5063578;28;20135;-66
2022/04/20 11:23:50;;;;;;;2.95;0.98;;;;;;;;;;5074839;28;20080;-66
2022/04/20 11:26:23;;;;;;;6.82;1.15;;;;;;;;;;5066913;28;20121;-66
2022/04/20 11:28:49;;;;;;;4.50;1.50;;;;;;;;;;5073337;28;20443;-66
2022/04/20 11:31:16;;;;;;;4.10;1.50;;;;;;;;;;5047343;28;20044;-66
2022/04/20 11:33:43;;;;;;;3.08;1.30;;;;;;;;;;5069496;28;20041;-66
2022/04/20 11:36:14;;;;;;;3.25;1.60;;;;;;;;;;5073117;28;20044;-66
2022/04/20 11:38:41;;;;;;;6.55;1.80;;;;;;;;;;5073232;28;20098;-66
2022/04/20 11:41:09;;;;;;;3.65;1.33;;;;;;;;;;5052663;28;20400;-66
2022/04/20 11:43:36;;;;;;;5.22;1.75;;;;;;;;;;5055514;28;20162;-66
2022/04/20 11:46:03;;;;;;;3.22;1.50;;;;;;;;;;5073399;28;20045;-66
2022/04/20 11:48:29;;;;;;;3.47;1.38;;;;;;;;;;5051197;28;20204;-66
2022/04/20 11:51:01;;;;;;;3.92;1.60;;;;;;;;;;5068403;28;20509;-66
2022/04/20 11:53:33;;;;;;;2.67;1.30;;;;;;;;;;5071369;28;20067;-66
2022/04/20 11:56:00;;;;;;;;;;;;;;;;;;5073441;28;20072;-66
2022/04/20 11:58:26;;;;;;;2.22;1.05;;;;;;;;;;5073705;28;20009;-66
2022/04/20 12:01:00;;;;;;;3.42;1.17;;;;;;;;;;5071142;28;20377;-66
2022/04/20 12:03:30;;;;;;;18.77;2.60;;;;;;;;;;5048275;28;20216;-66
2022/04/20 12:06:01;;;;;;;5.45;1.38;;;;;;;;;;5055606;28;20044;-66
2022/04/20 12:08:27;;;;;;;4.20;1.17;;;;;;;;;;5072889;28;20385;-66
2022/04/20 12:10:53;;;;;;;4.57;1.10;;;;;;;;;;5054775;28;20040;-66
2022/04/20 12:13:26;;;;;;;3.08;1.20;;;;;;;;;;5036067;28;20075;-66
2022/04/20 12:15:52;;;;;;;;;;;;;;;;;;5070388;28;20178;-66
2022/04/20 12:18:19;;;;;;;1.85;0.90;;;;;;;;;;5072624;28;19936;-66
2022/04/20 12:20:45;;;;;;;2.58;1.23;;;;;;;;;;5055034;28;20076;-66
2022/04/20 12:23:12;;;;;;;7.43;2.03;;;;;;;;;;5072436;28;20123;-66
2022/04/20 12:25:40;;;;;;;6.65;2.00;;;;;;;;;;5068771;28;20090;-66
2022/04/20 12:30:59;;;;;;;4.07;2.10;;;;;;;;;;5072228;28;20091;-66
2022/04/20 12:33:26;;;;;;;5.53;2.40;;;;;;;;;;5049022;28;20167;-66
2022/04/20 12:36:00;;;;;;;5.22;2.20;;;;;;;;;;5054490;28;20138;-66
2022/04/20 12:38:27;;;;;;;5.18;2.30;;;;;;;;;;5050224;28;20071;-66
2022/04/20 12:40:53;;;;;;;6.85;2.20;;;;;;;;;;5051638;28;20362;-66
2022/04/20 12:43:20;;;;;;;7.78;2.25;;;;;;;;;;5049330;28;20049;-66
2022/04/20 12:45:47;;;;;;;9.80;2.33;;;;;;;;;;5048294;28;20473;-66
2022/04/20 12:48:13;;;;;;;5.38;1.80;;;;;;;;;;5043838;28;20120;-66
2022/04/20 12:50:40;;;;;;;9.05;2.58;;;;;;;;;;5048298;28;20140;-66
2022/04/20 12:53:07;;;;;;;6.10;2.33;;;;;;;;;;5040043;28;20093;-66
2022/04/20 12:55:35;;;;;;;7.20;2.63;;;;;;;;;;5048569;28;20097;-66
2022/04/20 13:03:34;;;;;;;5.93;2.50;;;;;;;;;;5042686;28;20453;-66
2022/04/20 13:06:00;;;;;;;6.80;2.40;;;;;;;;;;5039315;28;20057;-66
2022/04/20 13:08:27;;;;;;;15.85;3.08;;;;;;;;;;5048474;28;20067;-66
2022/04/20 13:10:53;;;;;;;8.68;2.60;;;;;;;;;;5048410;28;20098;-66
2022/04/20 13:13:26;;;;;;;8.68;2.90;;;;;;;;;;5045245;28;20041;-66
2022/04/20 13:15:53;;;;;;;9.82;2.85;;;;;;;;;;5023462;28;20076;-66
2022/04/20 13:18:19;;;;;;;6.32;2.85;;;;;;;;;;5046225;28;20425;-66
2022/04/20 13:20:45;;;;;;;4.82;2.58;;;;;;;;;;5041238;28;20090;-66
2022/04/20 13:23:11;;;;;;;8.00;2.97;;;;;;;;;;5043240;28;20075;-66
2022/04/20 13:28:22;;;;;;;7.95;3.17;;;;;;;;;;5042421;28;20370;-66
2022/04/20 13:30:49;;;;;;;12.88;2.97;;;;;;;;;;5043367;28;20451;-66
2022/04/20 13:33:16;;;;;;;4.57;2.53;;;;;;;;;;5042113;28;20048;-66
2022/04/20 13:35:43;;;;;;;5.65;2.80;;;;;;;;;;5042294;28;20465;-66
2022/04/20 13:38:10;;;;;;;20.92;3.40;;;;;;;;;;5059860;28;20057;-66
2022/04/20 13:40:38;;;;;;;39.40;4.50;;;;;;;;;;5047506;28;20396;-66
2022/04/20 13:43:05;;;;;;;5.97;2.50;;;;;;;;;;5046730;28;20101;-66
2022/04/20 13:45:32;;;;;;;10.88;2.50;;;;;;;;;;5061874;28;20450;-66
2022/04/20 13:47:58;;;;;;;5.85;2.20;;;;;;;;;;5062077;28;20455;-66
2022/04/20 13:50:24;;;;;;;5.20;2.28;;;;;;;;;;5068367;28;20040;-66
2022/04/20 13:52:51;;;;;;;6.90;2.38;;;;;;;;;;5060097;28;20433;-66
2022/04/20 13:55:17;;;;;;;15.00;2.47;;;;;;;;;;5058063;28;20106;-66
2022/04/20 13:57:44;;;;;;;8.43;2.75;;;;;;;;;;5039838;28;20468;-71
2022/04/20 14:00:12;;;;;;;5.38;2.58;;;;;;;;;;5062108;28;20040;-66
2022/04/20 14:02:39;;;;;;;4.32;2.10;;;;;;;;;;5064312;28;21199;-66
2022/04/20 14:05:06;;;;;;;6.63;2.10;;;;;;;;;;5040759;28;20101;-66
2022/04/20 14:07:32;;;;;;;7.90;2.33;;;;;;;;;;5060215;28;20453;-67
2022/04/20 14:09:59;;;;;;;6.25;2.40;;;;;;;;;;5058123;28;20044;-66
2022/04/20 14:12:26;;;;;;;8.07;1.90;;;;;;;;;;5060504;28;20395;-66
2022/04/20 14:14:52;;;;;;;6.95;2.03;;;;;;;;;;5044159;28;20055;-66
2022/04/20 14:17:18;;;;;;;4.13;1.98;;;;;;;;;;5040047;28;20052;-66
2022/04/20 14:19:45;;;;;;;7.28;2.33;;;;;;;;;;5064088;28;20040;-66
2022/04/20 14:22:13;;;;;;;6.32;2.20;;;;;;;;;;5062260;28;20045;-66
2022/04/20 14:24:39;;;;;;;113.78;6.20;;;;;;;;;;5040559;28;20508;-66
2022/04/20 14:32:09;;;;;;;9.98;2.17;;;;;;;;;;5048291;28;20067;-66
2022/04/20 14:32:39;;;;;;;4.55;2.15;;;;;;;;;;5064231;28;20047;-66
2022/04/20 14:35:05;;;;;;;9.15;2.33;;;;;;;;;;5065870;28;20133;-66
2022/04/20 14:37:32;;;;;;;4.13;2.03;;;;;;;;;;5062409;28;20060;-66
2022/04/20 14:39:58;;;;;;;7.78;2.35;;;;;;;;;;5061165;28;20048;-66
2022/04/20 14:42:24;;;;;;;10.13;2.53;;;;;;;;;;5062782;28;20036;-66
2022/04/20 14:44:51;;;;;;;6.38;1.70;;;;;;;;;;5041215;28;20049;-66
2022/04/20 14:47:17;;;;;;;6.00;2.33;;;;;;;;;;5064082;28;20036;-66
2022/04/20 14:49:44;;;;;;;4.53;2.15;;;;;;;;;;5066783;28;20177;-66
2022/04/20 14:52:12;;;;;;;9.02;2.40;;;;;;;;;;5065745;28;20557;-66
2022/04/20 14:54:39;;;;;;;5.00;2.30;;;;;;;;;;5051360;28;20093;-66
2022/04/20 14:57:05;;;;;;;4.55;2.05;;;;;;;;;;5067643;28;20078;-66
2022/04/20 14:59:32;;;;;;;7.15;2.78;;;;;;;;;;5068444;28;20051;-66
2022/04/20 15:02:00;;;;;;;6.03;1.88;;;;;;;;;;5049737;28;20072;-67
2022/04/20 15:04:27;;;;;;;38.67;3.72;;;;;;;;;;5067658;28;20391;-66
2022/04/20 15:06:54;;;;;;;8.18;2.08;;;;;;;;;;5063967;28;20151;-66
2022/04/20 15:09:20;;;;;;;7.03;1.90;;;;;;;;;;5071806;28;20055;-66
2022/04/20 15:11:46;;;;;;;13.20;3.45;;;;;;;;;;5070605;28;20071;-66
2022/04/20 15:14:13;;;;;;;6.90;2.50;;;;;;;;;;5069863;28;20373;-66
2022/04/20 15:16:39;;;;;;;7.85;2.83;;;;;;;;;;5051786;28;20365;-66
2022/04/20 15:19:05;;;;;;;10.88;2.50;;;;;;;;;;5050513;28;20053;-66
2022/04/20 15:21:32;;;;;;;6.07;3.10;;;;;;;;;;5067055;28;20114;-66
2022/04/20 15:23:58;;;;;;;6.47;3.08;;;;;;;;;;5069017;28;20048;-66
2022/04/20 15:26:25;;;;;;;5.70;3.03;;;;;;;;;;5069024;28;20051;-67
2022/04/20 15:28:52;;;;;;;10.77;3.03;;;;;;;;;;5070411;28;20048;-66